sensor_id;sensor_type;location;lat;lon;timestamp;temperature;humidity
1592;DHT22;789;51.612;7.510;2023-09-19T00:02:18;18.30;1.00
1592;DHT22;789;51.612;7.510;2023-09-19T00:04:45;18.30;1.00
1592;DHT22;789;51.612;7.510;2023-09-19T00:07:14;18.20;1.00
1592;DHT22;789;51.612;7.510;2023-09-19T00:09:42;18.10;1.00
1592;DHT22;789;51.612;7.510;2023-09-19T00:12:09;18.10;1.00
1592;DHT22;789;51.612;7.510;2023-09-19T00:14:38;17.90;1.00
1592;DHT22;789;51.612;7.510;2023-09-19T00:17:05;18.00;1.00
1592;DHT22;789;51.612;7.510;2023-09-19T00:19:35;17.90;1.00
1592;DHT22;789;51.612;7.510;2023-09-19T00:22:02;17.80;1.00
1592;DHT22;789;51.612;7.510;2023-09-19T00:24:29;17.80;1.00
1592;DHT22;789;51.612;7.510;2023-09-19T00:26:56;17.70;1.00
1592;DHT22;789;51.612;7.510;2023-09-19T00:29:25;17.70;1.00
1592;DHT22;789;51.612;7.510;2023-09-19T00:31:54;17.70;1.00
1592;DHT22;789;51.612;7.510;2023-09-19T00:34:21;17.70;1.00
1592;DHT22;789;51.612;7.510;2023-09-19T00:36:50;17.70;1.00
1592;DHT22;789;51.612;7.510;2023-09-19T00:39:18;17.70;1.00
1592;DHT22;789;51.612;7.510;2023-09-19T00:41:45;17.60;1.00
1592;DHT22;789;51.612;7.510;2023-09-19T00:44:12;17.60;1.00
1592;DHT22;789;51.612;7.510;2023-09-19T00:46:41;17.50;1.00
1592;DHT22;789;51.612;7.510;2023-09-19T00:49:08;17.50;1.00
1592;DHT22;789;51.612;7.510;2023-09-19T00:51:36;17.50;1.00
1592;DHT22;789;51.612;7.510;2023-09-19T00:54:05;17.50;1.00
1592;DHT22;789;51.612;7.510;2023-09-19T00:56:33;17.50;1.00
1592;DHT22;789;51.612;7.510;2023-09-19T00:59:00;17.50;1.00
1592;DHT22;789;51.612;7.510;2023-09-19T01:01:27;17.40;1.00
1592;DHT22;789;51.612;7.510;2023-09-19T01:03:53;17.40;1.00
1592;DHT22;789;51.612;7.510;2023-09-19T01:06:20;17.40;1.00
1592;DHT22;789;51.612;7.510;2023-09-19T01:08:47;17.40;1.00
1592;DHT22;789;51.612;7.510;2023-09-19T01:11:21;17.30;1.00
1592;DHT22;789;51.612;7.510;2023-09-19T01:13:56;17.30;1.00
1592;DHT22;789;51.612;7.510;2023-09-19T01:16:35;17.30;1.00
1592;DHT22;789;51.612;7.510;2023-09-19T01:22:18;17.20;1.00
1592;DHT22;789;51.612;7.510;2023-09-19T01:25:20;17.20;1.00
1592;DHT22;789;51.612;7.510;2023-09-19T01:28:21;17.20;1.00
1592;DHT22;789;51.612;7.510;2023-09-19T01:30:58;17.20;1.00
1592;DHT22;789;51.612;7.510;2023-09-19T01:33:28;17.00;1.00
1592;DHT22;789;51.612;7.510;2023-09-19T01:35:59;17.00;1.00
1592;DHT22;789;51.612;7.510;2023-09-19T01:38:26;17.00;1.00
1592;DHT22;789;51.612;7.510;2023-09-19T01:41:03;17.00;1.00
1592;DHT22;789;51.612;7.510;2023-09-19T01:43:33;17.00;1.00
1592;DHT22;789;51.612;7.510;2023-09-19T01:46:08;17.00;1.00
1592;DHT22;789;51.612;7.510;2023-09-19T01:48:40;17.00;1.00
1592;DHT22;789;51.612;7.510;2023-09-19T01:51:14;17.00;1.00
1592;DHT22;789;51.612;7.510;2023-09-19T01:53:50;17.00;1.00
1592;DHT22;789;51.612;7.510;2023-09-19T01:56:22;17.00;1.00
1592;DHT22;789;51.612;7.510;2023-09-19T01:58:55;17.00;1.00
1592;DHT22;789;51.612;7.510;2023-09-19T02:01:25;16.90;1.00
1592;DHT22;789;51.612;7.510;2023-09-19T02:03:53;16.90;1.00
1592;DHT22;789;51.612;7.510;2023-09-19T02:06:22;16.90;1.00
1592;DHT22;789;51.612;7.510;2023-09-19T02:08:53;16.90;1.00
1592;DHT22;789;51.612;7.510;2023-09-19T02:11:21;16.90;1.00
1592;DHT22;789;51.612;7.510;2023-09-19T02:13:47;16.90;1.00
1592;DHT22;789;51.612;7.510;2023-09-19T02:16:20;16.80;1.00
1592;DHT22;789;51.612;7.510;2023-09-19T02:18:49;16.80;1.00
1592;DHT22;789;51.612;7.510;2023-09-19T02:21:16;16.90;1.00
1592;DHT22;789;51.612;7.510;2023-09-19T02:23:43;16.80;1.00
1592;DHT22;789;51.612;7.510;2023-09-19T02:26:10;16.80;1.00
1592;DHT22;789;51.612;7.510;2023-09-19T02:28:39;16.80;1.00
1592;DHT22;789;51.612;7.510;2023-09-19T02:31:06;16.80;1.00
1592;DHT22;789;51.612;7.510;2023-09-19T02:33:33;16.70;1.00
1592;DHT22;789;51.612;7.510;2023-09-19T02:36:03;16.70;1.00
1592;DHT22;789;51.612;7.510;2023-09-19T02:38:31;16.60;1.00
1592;DHT22;789;51.612;7.510;2023-09-19T02:40:58;16.60;1.00
1592;DHT22;789;51.612;7.510;2023-09-19T02:43:24;16.60;1.00
1592;DHT22;789;51.612;7.510;2023-09-19T02:45:51;16.60;1.00
1592;DHT22;789;51.612;7.510;2023-09-19T02:48:19;16.60;1.00
1592;DHT22;789;51.612;7.510;2023-09-19T02:50:46;16.60;1.00
1592;DHT22;789;51.612;7.510;2023-09-19T02:53:14;16.60;1.00
1592;DHT22;789;51.612;7.510;2023-09-19T02:55:42;16.60;1.00
1592;DHT22;789;51.612;7.510;2023-09-19T02:58:09;16.60;1.00
1592;DHT22;789;51.612;7.510;2023-09-19T03:00:37;16.60;1.00
1592;DHT22;789;51.612;7.510;2023-09-19T03:03:04;16.60;1.00
1592;DHT22;789;51.612;7.510;2023-09-19T03:05:33;16.60;1.00
1592;DHT22;789;51.612;7.510;2023-09-19T03:08:01;16.60;1.00
1592;DHT22;789;51.612;7.510;2023-09-19T03:10:32;16.60;1.00
1592;DHT22;789;51.612;7.510;2023-09-19T03:12:59;16.60;1.00
1592;DHT22;789;51.612;7.510;2023-09-19T03:15:26;16.70;1.00
1592;DHT22;789;51.612;7.510;2023-09-19T03:17:53;16.60;1.00
1592;DHT22;789;51.612;7.510;2023-09-19T03:20:20;16.60;1.00
1592;DHT22;789;51.612;7.510;2023-09-19T03:22:48;16.60;1.00
1592;DHT22;789;51.612;7.510;2023-09-19T03:25:15;16.50;1.00
1592;DHT22;789;51.612;7.510;2023-09-19T03:27:44;16.50;1.00
1592;DHT22;789;51.612;7.510;2023-09-19T03:30:11;16.50;1.00
1592;DHT22;789;51.612;7.510;2023-09-19T03:32:44;16.40;1.00
1592;DHT22;789;51.612;7.510;2023-09-19T03:35:13;16.30;1.00
1592;DHT22;789;51.612;7.510;2023-09-19T03:37:40;16.30;1.00
1592;DHT22;789;51.612;7.510;2023-09-19T03:40:08;16.30;1.00
1592;DHT22;789;51.612;7.510;2023-09-19T03:42:38;16.30;1.00
1592;DHT22;789;51.612;7.510;2023-09-19T03:45:08;16.20;1.00
1592;DHT22;789;51.612;7.510;2023-09-19T03:47:37;16.30;1.00
1592;DHT22;789;51.612;7.510;2023-09-19T03:50:05;16.30;1.00
1592;DHT22;789;51.612;7.510;2023-09-19T03:52:34;16.30;1.00
1592;DHT22;789;51.612;7.510;2023-09-19T03:55:01;16.30;1.00
1592;DHT22;789;51.612;7.510;2023-09-19T03:57:30;16.30;1.00
1592;DHT22;789;51.612;7.510;2023-09-19T03:59:57;16.20;1.00
1592;DHT22;789;51.612;7.510;2023-09-19T04:02:25;16.20;1.00
1592;DHT22;789;51.612;7.510;2023-09-19T04:04:58;16.20;1.00
1592;DHT22;789;51.612;7.510;2023-09-19T04:07:25;16.20;1.00
1592;DHT22;789;51.612;7.510;2023-09-19T04:09:57;16.20;1.00
1592;DHT22;789;51.612;7.510;2023-09-19T04:12:24;16.20;1.00
1592;DHT22;789;51.612;7.510;2023-09-19T04:14:51;16.10;1.00
1592;DHT22;789;51.612;7.510;2023-09-19T04:17:18;16.10;1.00
1592;DHT22;789;51.612;7.510;2023-09-19T04:19:46;16.20;1.00
1592;DHT22;789;51.612;7.510;2023-09-19T04:22:14;16.20;1.00
1592;DHT22;789;51.612;7.510;2023-09-19T04:24:41;16.20;1.00
1592;DHT22;789;51.612;7.510;2023-09-19T04:27:08;16.20;1.00
1592;DHT22;789;51.612;7.510;2023-09-19T04:29:35;16.10;1.00
1592;DHT22;789;51.612;7.510;2023-09-19T04:32:05;16.10;1.00
1592;DHT22;789;51.612;7.510;2023-09-19T04:34:33;16.10;1.00
1592;DHT22;789;51.612;7.510;2023-09-19T04:37:01;16.20;1.00
1592;DHT22;789;51.612;7.510;2023-09-19T04:39:29;16.10;1.00
1592;DHT22;789;51.612;7.510;2023-09-19T04:41:56;16.10;1.00
1592;DHT22;789;51.612;7.510;2023-09-19T04:44:24;16.10;1.00
1592;DHT22;789;51.612;7.510;2023-09-19T04:46:51;16.10;1.00
1592;DHT22;789;51.612;7.510;2023-09-19T04:49:17;16.10;1.00
1592;DHT22;789;51.612;7.510;2023-09-19T04:51:44;16.10;1.00
1592;DHT22;789;51.612;7.510;2023-09-19T04:54:13;16.00;1.00
1592;DHT22;789;51.612;7.510;2023-09-19T04:56:40;16.00;1.00
1592;DHT22;789;51.612;7.510;2023-09-19T04:59:07;16.00;1.00
1592;DHT22;789;51.612;7.510;2023-09-19T05:01:36;16.10;1.00
1592;DHT22;789;51.612;7.510;2023-09-19T05:04:03;16.00;1.00
1592;DHT22;789;51.612;7.510;2023-09-19T05:06:30;16.00;1.00
1592;DHT22;789;51.612;7.510;2023-09-19T05:08:57;16.10;1.00
1592;DHT22;789;51.612;7.510;2023-09-19T05:11:27;16.10;1.00
1592;DHT22;789;51.612;7.510;2023-09-19T05:13:55;16.10;1.00
1592;DHT22;789;51.612;7.510;2023-09-19T05:16:28;16.10;1.00
1592;DHT22;789;51.612;7.510;2023-09-19T05:18:55;16.10;1.00
1592;DHT22;789;51.612;7.510;2023-09-19T05:21:22;16.10;1.00
1592;DHT22;789;51.612;7.510;2023-09-19T05:23:51;16.10;1.00
1592;DHT22;789;51.612;7.510;2023-09-19T05:26:19;16.10;1.00
1592;DHT22;789;51.612;7.510;2023-09-19T05:28:47;16.10;1.00
1592;DHT22;789;51.612;7.510;2023-09-19T05:31:14;16.10;1.00
1592;DHT22;789;51.612;7.510;2023-09-19T05:33:42;16.10;1.00
1592;DHT22;789;51.612;7.510;2023-09-19T05:36:09;16.00;1.00
1592;DHT22;789;51.612;7.510;2023-09-19T05:38:38;16.00;1.00
1592;DHT22;789;51.612;7.510;2023-09-19T05:41:11;16.10;1.00
1592;DHT22;789;51.612;7.510;2023-09-19T05:43:39;16.20;1.00
1592;DHT22;789;51.612;7.510;2023-09-19T05:46:07;16.20;1.00
1592;DHT22;789;51.612;7.510;2023-09-19T05:48:34;16.20;1.00
1592;DHT22;789;51.612;7.510;2023-09-19T05:51:01;16.30;1.00
1592;DHT22;789;51.612;7.510;2023-09-19T05:53:28;16.20;1.00
1592;DHT22;789;51.612;7.510;2023-09-19T05:55:55;16.30;1.00
1592;DHT22;789;51.612;7.510;2023-09-19T05:58:22;16.30;1.00
1592;DHT22;789;51.612;7.510;2023-09-19T06:00:49;16.30;1.00
1592;DHT22;789;51.612;7.510;2023-09-19T06:03:17;16.40;1.00
1592;DHT22;789;51.612;7.510;2023-09-19T06:05:46;16.40;1.00
1592;DHT22;789;51.612;7.510;2023-09-19T06:08:14;16.40;1.00
1592;DHT22;789;51.612;7.510;2023-09-19T06:10:41;16.50;1.00
1592;DHT22;789;51.612;7.510;2023-09-19T06:13:08;16.50;1.00
1592;DHT22;789;51.612;7.510;2023-09-19T06:15:36;16.60;1.00
1592;DHT22;789;51.612;7.510;2023-09-19T06:18:03;16.60;1.00
1592;DHT22;789;51.612;7.510;2023-09-19T06:20:38;16.60;1.00
1592;DHT22;789;51.612;7.510;2023-09-19T06:23:17;16.60;1.00
1592;DHT22;789;51.612;7.510;2023-09-19T06:25:51;16.70;1.00
1592;DHT22;789;51.612;7.510;2023-09-19T06:28:18;16.70;1.00
1592;DHT22;789;51.612;7.510;2023-09-19T06:30:49;16.70;1.00
1592;DHT22;789;51.612;7.510;2023-09-19T06:33:16;16.60;1.00
1592;DHT22;789;51.612;7.510;2023-09-19T06:35:47;16.90;1.00
1592;DHT22;789;51.612;7.510;2023-09-19T06:38:14;16.80;1.00
1592;DHT22;789;51.612;7.510;2023-09-19T06:40:41;16.80;1.00
1592;DHT22;789;51.612;7.510;2023-09-19T06:43:10;16.70;1.00
1592;DHT22;789;51.612;7.510;2023-09-19T06:45:37;16.80;1.00
1592;DHT22;789;51.612;7.510;2023-09-19T06:48:04;16.80;1.00
1592;DHT22;789;51.612;7.510;2023-09-19T06:50:32;16.80;1.00
1592;DHT22;789;51.612;7.510;2023-09-19T06:53:01;16.90;1.00
1592;DHT22;789;51.612;7.510;2023-09-19T06:55:28;17.00;1.00
1592;DHT22;789;51.612;7.510;2023-09-19T06:57:56;16.80;1.00
1592;DHT22;789;51.612;7.510;2023-09-19T07:00:24;16.90;1.00
1592;DHT22;789;51.612;7.510;2023-09-19T07:02:57;16.80;1.00
1592;DHT22;789;51.612;7.510;2023-09-19T07:05:26;16.90;1.00
1592;DHT22;789;51.612;7.510;2023-09-19T07:07:56;16.90;1.00
1592;DHT22;789;51.612;7.510;2023-09-19T07:10:26;16.90;1.00
1592;DHT22;789;51.612;7.510;2023-09-19T07:12:55;17.00;1.00
1592;DHT22;789;51.612;7.510;2023-09-19T07:15:25;17.00;1.00
1592;DHT22;789;51.612;7.510;2023-09-19T07:17:52;17.00;1.00
1592;DHT22;789;51.612;7.510;2023-09-19T07:20:20;17.10;1.00
1592;DHT22;789;51.612;7.510;2023-09-19T07:22:47;17.20;1.00
1592;DHT22;789;51.612;7.510;2023-09-19T07:25:16;17.30;1.00
1592;DHT22;789;51.612;7.510;2023-09-19T07:27:44;17.40;1.00
1592;DHT22;789;51.612;7.510;2023-09-19T07:30:12;17.50;1.00
1592;DHT22;789;51.612;7.510;2023-09-19T07:32:40;17.70;1.00
1592;DHT22;789;51.612;7.510;2023-09-19T07:35:08;17.90;1.00
1592;DHT22;789;51.612;7.510;2023-09-19T07:37:35;18.20;1.00
1592;DHT22;789;51.612;7.510;2023-09-19T07:40:02;18.30;1.00
1592;DHT22;789;51.612;7.510;2023-09-19T07:42:32;18.30;1.00
1592;DHT22;789;51.612;7.510;2023-09-19T07:45:02;18.40;1.00
1592;DHT22;789;51.612;7.510;2023-09-19T07:47:30;18.50;1.00
1592;DHT22;789;51.612;7.510;2023-09-19T07:49:58;18.60;1.00
1592;DHT22;789;51.612;7.510;2023-09-19T07:52:28;18.90;1.00
1592;DHT22;789;51.612;7.510;2023-09-19T07:54:55;19.20;1.00
1592;DHT22;789;51.612;7.510;2023-09-19T07:57:23;19.50;1.00
1592;DHT22;789;51.612;7.510;2023-09-19T07:59:50;19.50;1.00
1592;DHT22;789;51.612;7.510;2023-09-19T08:02:18;19.30;1.00
1592;DHT22;789;51.612;7.510;2023-09-19T08:04:45;19.30;1.00
1592;DHT22;789;51.612;7.510;2023-09-19T08:07:12;19.60;1.00
1592;DHT22;789;51.612;7.510;2023-09-19T08:09:40;19.80;1.00
1592;DHT22;789;51.612;7.510;2023-09-19T08:12:07;19.80;1.00
1592;DHT22;789;51.612;7.510;2023-09-19T08:14:35;19.90;1.00
1592;DHT22;789;51.612;7.510;2023-09-19T08:17:03;20.00;1.00
1592;DHT22;789;51.612;7.510;2023-09-19T08:19:32;20.20;1.00
1592;DHT22;789;51.612;7.510;2023-09-19T08:21:59;20.60;1.00
1592;DHT22;789;51.612;7.510;2023-09-19T08:24:28;20.70;1.00
1592;DHT22;789;51.612;7.510;2023-09-19T08:26:56;20.90;1.00
1592;DHT22;789;51.612;7.510;2023-09-19T08:29:23;21.00;1.00
1592;DHT22;789;51.612;7.510;2023-09-19T08:31:54;21.10;1.00
1592;DHT22;789;51.612;7.510;2023-09-19T08:34:21;21.10;1.00
1592;DHT22;789;51.612;7.510;2023-09-19T08:36:50;21.00;1.00
1592;DHT22;789;51.612;7.510;2023-09-19T08:39:18;20.80;1.00
1592;DHT22;789;51.612;7.510;2023-09-19T08:41:45;20.70;1.00
1592;DHT22;789;51.612;7.510;2023-09-19T08:44:12;20.60;1.00
1592;DHT22;789;51.612;7.510;2023-09-19T08:46:41;20.60;1.00
1592;DHT22;789;51.612;7.510;2023-09-19T08:49:14;20.50;1.00
1592;DHT22;789;51.612;7.510;2023-09-19T08:51:56;20.30;1.00
1592;DHT22;789;51.612;7.510;2023-09-19T08:54:29;20.20;1.00
1592;DHT22;789;51.612;7.510;2023-09-19T08:57:01;20.10;1.00
1592;DHT22;789;51.612;7.510;2023-09-19T08:59:33;20.10;1.00
1592;DHT22;789;51.612;7.510;2023-09-19T09:02:02;20.20;1.00
1592;DHT22;789;51.612;7.510;2023-09-19T09:04:29;20.20;1.00
1592;DHT22;789;51.612;7.510;2023-09-19T09:06:57;20.40;1.00
1592;DHT22;789;51.612;7.510;2023-09-19T09:09:26;20.80;1.00
1592;DHT22;789;51.612;7.510;2023-09-19T09:11:54;21.00;1.00
1592;DHT22;789;51.612;7.510;2023-09-19T09:14:22;21.30;1.00
1592;DHT22;789;51.612;7.510;2023-09-19T09:16:50;21.60;1.00
1592;DHT22;789;51.612;7.510;2023-09-19T09:19:17;21.80;1.00
1592;DHT22;789;51.612;7.510;2023-09-19T09:21:50;22.10;1.00
1592;DHT22;789;51.612;7.510;2023-09-19T09:24:30;22.40;1.00
1592;DHT22;789;51.612;7.510;2023-09-19T09:26:59;22.60;1.00
1592;DHT22;789;51.612;7.510;2023-09-19T09:29:45;22.50;1.00
1592;DHT22;789;51.612;7.510;2023-09-19T09:32:19;22.40;1.00
1592;DHT22;789;51.612;7.510;2023-09-19T09:34:47;22.50;1.00
1592;DHT22;789;51.612;7.510;2023-09-19T09:37:15;22.70;1.00
1592;DHT22;789;51.612;7.510;2023-09-19T09:39:51;23.10;1.00
1592;DHT22;789;51.612;7.510;2023-09-19T09:42:32;23.70;1.00
1592;DHT22;789;51.612;7.510;2023-09-19T09:45:17;24.50;1.00
1592;DHT22;789;51.612;7.510;2023-09-19T09:47:45;24.60;1.00
1592;DHT22;789;51.612;7.510;2023-09-19T09:50:25;24.90;1.00
1592;DHT22;789;51.612;7.510;2023-09-19T09:52:55;25.10;1.00
1592;DHT22;789;51.612;7.510;2023-09-19T09:55:30;25.40;1.00
1592;DHT22;789;51.612;7.510;2023-09-19T09:58:17;26.10;1.00
1592;DHT22;789;51.612;7.510;2023-09-19T10:00:52;26.90;1.00
1592;DHT22;789;51.612;7.510;2023-09-19T10:03:30;27.40;1.00
1592;DHT22;789;51.612;7.510;2023-09-19T10:05:58;28.10;1.00
1592;DHT22;789;51.612;7.510;2023-09-19T10:08:28;28.10;1.00
1592;DHT22;789;51.612;7.510;2023-09-19T10:10:58;28.10;1.00
1592;DHT22;789;51.612;7.510;2023-09-19T10:13:32;28.80;1.00
1592;DHT22;789;51.612;7.510;2023-09-19T10:16:06;29.60;1.00
1592;DHT22;789;51.612;7.510;2023-09-19T10:18:36;30.70;1.00
1592;DHT22;789;51.612;7.510;2023-09-19T10:21:04;31.20;1.00
1592;DHT22;789;51.612;7.510;2023-09-19T10:23:33;31.80;1.00
1592;DHT22;789;51.612;7.510;2023-09-19T10:26:07;32.30;1.00
1592;DHT22;789;51.612;7.510;2023-09-19T10:28:35;33.40;1.00
1592;DHT22;789;51.612;7.510;2023-09-19T10:31:03;33.70;1.00
1592;DHT22;789;51.612;7.510;2023-09-19T10:33:36;33.50;1.00
1592;DHT22;789;51.612;7.510;2023-09-19T10:36:05;33.20;1.00
1592;DHT22;789;51.612;7.510;2023-09-19T10:38:33;33.10;1.00
1592;DHT22;789;51.612;7.510;2023-09-19T10:41:03;32.20;1.00
1592;DHT22;789;51.612;7.510;2023-09-19T10:43:32;31.30;1.00
1592;DHT22;789;51.612;7.510;2023-09-19T10:46:02;30.30;1.00
1592;DHT22;789;51.612;7.510;2023-09-19T10:48:29;28.70;1.00
1592;DHT22;789;51.612;7.510;2023-09-19T10:51:01;28.10;1.00
1592;DHT22;789;51.612;7.510;2023-09-19T10:53:39;28.50;1.00
1592;DHT22;789;51.612;7.510;2023-09-19T10:56:18;29.40;1.00
1592;DHT22;789;51.612;7.510;2023-09-19T10:58:45;29.50;1.00
1592;DHT22;789;51.612;7.510;2023-09-19T11:01:15;29.50;1.00
1592;DHT22;789;51.612;7.510;2023-09-19T11:03:45;30.00;1.00
1592;DHT22;789;51.612;7.510;2023-09-19T11:06:16;29.70;1.00
1592;DHT22;789;51.612;7.510;2023-09-19T11:08:57;29.60;1.00
1592;DHT22;789;51.612;7.510;2023-09-19T11:11:45;29.20;1.00
1592;DHT22;789;51.612;7.510;2023-09-19T11:14:40;28.60;1.00
1592;DHT22;789;51.612;7.510;2023-09-19T11:17:41;28.60;1.00
1592;DHT22;789;51.612;7.510;2023-09-19T11:20:20;28.70;1.00
1592;DHT22;789;51.612;7.510;2023-09-19T11:23:20;29.00;1.00
1592;DHT22;789;51.612;7.510;2023-09-19T11:25:50;29.60;1.00
1592;DHT22;789;51.612;7.510;2023-09-19T11:28:34;29.80;1.00
1592;DHT22;789;51.612;7.510;2023-09-19T11:34:42;29.30;1.00
1592;DHT22;789;51.612;7.510;2023-09-19T11:40:36;29.10;1.00
1592;DHT22;789;51.612;7.510;2023-09-19T11:43:29;29.70;1.00
1592;DHT22;789;51.612;7.510;2023-09-19T11:46:07;29.90;1.00
1592;DHT22;789;51.612;7.510;2023-09-19T11:48:41;29.80;1.00
1592;DHT22;789;51.612;7.510;2023-09-19T11:51:21;29.30;1.00
1592;DHT22;789;51.612;7.510;2023-09-19T11:53:54;28.70;1.00
1592;DHT22;789;51.612;7.510;2023-09-19T11:56:24;28.70;1.00
1592;DHT22;789;51.612;7.510;2023-09-19T11:58:54;28.90;1.00
1592;DHT22;789;51.612;7.510;2023-09-19T12:01:23;28.80;1.00
1592;DHT22;789;51.612;7.510;2023-09-19T12:03:53;28.20;1.00
1592;DHT22;789;51.612;7.510;2023-09-19T12:06:23;27.30;1.00
1592;DHT22;789;51.612;7.510;2023-09-19T12:08:50;26.80;1.00
1592;DHT22;789;51.612;7.510;2023-09-19T12:11:22;26.10;1.00
1592;DHT22;789;51.612;7.510;2023-09-19T12:13:49;25.40;1.00
1592;DHT22;789;51.612;7.510;2023-09-19T12:16:20;24.90;1.00
1592;DHT22;789;51.612;7.510;2023-09-19T12:18:51;24.40;1.00
1592;DHT22;789;51.612;7.510;2023-09-19T12:21:27;24.10;1.00
1592;DHT22;789;51.612;7.510;2023-09-19T12:24:06;23.90;1.00
1592;DHT22;789;51.612;7.510;2023-09-19T12:26:39;23.70;1.00
1592;DHT22;789;51.612;7.510;2023-09-19T12:29:12;23.40;1.00
1592;DHT22;789;51.612;7.510;2023-09-19T12:31:49;23.20;1.00
1592;DHT22;789;51.612;7.510;2023-09-19T12:34:19;23.00;1.00
1592;DHT22;789;51.612;7.510;2023-09-19T12:36:46;23.00;1.00
1592;DHT22;789;51.612;7.510;2023-09-19T12:39:23;22.90;1.00
1592;DHT22;789;51.612;7.510;2023-09-19T12:41:52;22.80;1.00
1592;DHT22;789;51.612;7.510;2023-09-19T12:44:22;22.80;1.00
1592;DHT22;789;51.612;7.510;2023-09-19T12:46:54;22.70;1.00
1592;DHT22;789;51.612;7.510;2023-09-19T12:49:25;22.70;1.00
1592;DHT22;789;51.612;7.510;2023-09-19T12:51:57;22.60;1.00
1592;DHT22;789;51.612;7.510;2023-09-19T12:54:25;22.50;1.00
1592;DHT22;789;51.612;7.510;2023-09-19T12:56:52;22.50;1.00
1592;DHT22;789;51.612;7.510;2023-09-19T12:59:29;22.50;1.00
1592;DHT22;789;51.612;7.510;2023-09-19T13:02:05;22.40;1.00
1592;DHT22;789;51.612;7.510;2023-09-19T13:04:39;22.20;1.00
1592;DHT22;789;51.612;7.510;2023-09-19T13:07:41;22.20;1.00
1592;DHT22;789;51.612;7.510;2023-09-19T13:10:13;22.30;1.00
1592;DHT22;789;51.612;7.510;2023-09-19T13:12:43;22.30;1.00
1592;DHT22;789;51.612;7.510;2023-09-19T13:15:14;22.30;1.00
1592;DHT22;789;51.612;7.510;2023-09-19T13:17:47;22.30;1.00
1592;DHT22;789;51.612;7.510;2023-09-19T13:20:24;22.50;1.00
1592;DHT22;789;51.612;7.510;2023-09-19T13:22:54;22.20;1.00
1592;DHT22;789;51.612;7.510;2023-09-19T13:25:24;22.20;1.00
1592;DHT22;789;51.612;7.510;2023-09-19T13:27:53;22.30;1.00
1592;DHT22;789;51.612;7.510;2023-09-19T13:30:22;22.20;1.00
1592;DHT22;789;51.612;7.510;2023-09-19T13:32:52;22.20;1.00
1592;DHT22;789;51.612;7.510;2023-09-19T13:35:19;22.20;1.00
1592;DHT22;789;51.612;7.510;2023-09-19T13:37:47;22.30;1.00
1592;DHT22;789;51.612;7.510;2023-09-19T13:40:15;22.20;1.00
1592;DHT22;789;51.612;7.510;2023-09-19T13:42:42;22.20;1.00
1592;DHT22;789;51.612;7.510;2023-09-19T13:45:09;22.20;1.00
1592;DHT22;789;51.612;7.510;2023-09-19T13:47:38;22.30;1.00
1592;DHT22;789;51.612;7.510;2023-09-19T13:50:07;22.10;1.00
1592;DHT22;789;51.612;7.510;2023-09-19T13:52:36;22.00;1.00
1592;DHT22;789;51.612;7.510;2023-09-19T13:55:04;22.00;1.00
1592;DHT22;789;51.612;7.510;2023-09-19T13:57:32;21.90;1.00
1592;DHT22;789;51.612;7.510;2023-09-19T13:59:59;21.90;1.00
1592;DHT22;789;51.612;7.510;2023-09-19T14:02:26;21.90;1.00
1592;DHT22;789;51.612;7.510;2023-09-19T14:04:53;21.90;1.00
1592;DHT22;789;51.612;7.510;2023-09-19T14:07:24;22.00;1.00
1592;DHT22;789;51.612;7.510;2023-09-19T14:09:51;22.10;1.00
1592;DHT22;789;51.612;7.510;2023-09-19T14:12:18;22.10;1.00
1592;DHT22;789;51.612;7.510;2023-09-19T14:14:47;22.10;1.00
1592;DHT22;789;51.612;7.510;2023-09-19T14:17:18;22.30;1.00
1592;DHT22;789;51.612;7.510;2023-09-19T14:19:58;22.30;1.00
1592;DHT22;789;51.612;7.510;2023-09-19T14:22:26;22.40;1.00
1592;DHT22;789;51.612;7.510;2023-09-19T14:24:53;22.30;1.00
1592;DHT22;789;51.612;7.510;2023-09-19T14:38:14;22.30;1.00
1592;DHT22;789;51.612;7.510;2023-09-19T14:40:41;22.10;1.00
1592;DHT22;789;51.612;7.510;2023-09-19T14:43:08;22.00;1.00
1592;DHT22;789;51.612;7.510;2023-09-19T14:45:35;22.00;1.00
1592;DHT22;789;51.612;7.510;2023-09-19T14:48:04;22.10;1.00
1592;DHT22;789;51.612;7.510;2023-09-19T14:50:32;22.00;1.00
1592;DHT22;789;51.612;7.510;2023-09-19T14:53:06;21.90;1.00
1592;DHT22;789;51.612;7.510;2023-09-19T14:55:37;21.90;1.00
1592;DHT22;789;51.612;7.510;2023-09-19T14:58:08;21.90;1.00
1592;DHT22;789;51.612;7.510;2023-09-19T15:00:38;21.70;1.00
1592;DHT22;789;51.612;7.510;2023-09-19T15:03:05;21.60;1.00
1592;DHT22;789;51.612;7.510;2023-09-19T15:05:36;21.50;1.00
1592;DHT22;789;51.612;7.510;2023-09-19T15:08:05;21.40;1.00
1592;DHT22;789;51.612;7.510;2023-09-19T15:10:34;21.50;1.00
1592;DHT22;789;51.612;7.510;2023-09-19T15:13:03;21.60;1.00
1592;DHT22;789;51.612;7.510;2023-09-19T15:15:31;21.60;1.00
1592;DHT22;789;51.612;7.510;2023-09-19T15:17:58;21.50;1.00
1592;DHT22;789;51.612;7.510;2023-09-19T15:20:28;21.50;1.00
1592;DHT22;789;51.612;7.510;2023-09-19T15:22:56;21.50;1.00
1592;DHT22;789;51.612;7.510;2023-09-19T15:25:23;21.50;1.00
1592;DHT22;789;51.612;7.510;2023-09-19T15:27:54;21.50;1.00
1592;DHT22;789;51.612;7.510;2023-09-19T15:30:24;21.60;1.00
1592;DHT22;789;51.612;7.510;2023-09-19T15:32:51;21.60;1.00
1592;DHT22;789;51.612;7.510;2023-09-19T15:35:18;21.50;1.00
1592;DHT22;789;51.612;7.510;2023-09-19T15:37:46;21.50;1.00
1592;DHT22;789;51.612;7.510;2023-09-19T15:40:15;21.30;1.00
1592;DHT22;789;51.612;7.510;2023-09-19T15:42:44;21.30;1.00
1592;DHT22;789;51.612;7.510;2023-09-19T15:45:14;21.40;1.00
1592;DHT22;789;51.612;7.510;2023-09-19T15:47:43;21.30;1.00
1592;DHT22;789;51.612;7.510;2023-09-19T15:50:10;21.30;1.00
1592;DHT22;789;51.612;7.510;2023-09-19T15:52:39;21.30;1.00
1592;DHT22;789;51.612;7.510;2023-09-19T15:55:07;21.40;1.00
1592;DHT22;789;51.612;7.510;2023-09-19T15:57:34;21.20;1.00
1592;DHT22;789;51.612;7.510;2023-09-19T16:00:05;21.30;1.00
1592;DHT22;789;51.612;7.510;2023-09-19T16:02:35;21.30;1.00
1592;DHT22;789;51.612;7.510;2023-09-19T16:05:13;21.40;1.00
1592;DHT22;789;51.612;7.510;2023-09-19T16:07:40;21.20;1.00
1592;DHT22;789;51.612;7.510;2023-09-19T16:10:08;21.20;1.00
1592;DHT22;789;51.612;7.510;2023-09-19T16:12:39;21.10;1.00
1592;DHT22;789;51.612;7.510;2023-09-19T16:15:07;21.10;1.00
1592;DHT22;789;51.612;7.510;2023-09-19T16:17:36;21.10;1.00
1592;DHT22;789;51.612;7.510;2023-09-19T16:20:06;21.10;1.00
1592;DHT22;789;51.612;7.510;2023-09-19T16:22:37;20.90;1.00
1592;DHT22;789;51.612;7.510;2023-09-19T16:25:05;20.80;1.00
1592;DHT22;789;51.612;7.510;2023-09-19T16:27:32;20.60;1.00
1592;DHT22;789;51.612;7.510;2023-09-19T16:29:59;20.50;1.00
1592;DHT22;789;51.612;7.510;2023-09-19T16:32:26;20.50;1.00
1592;DHT22;789;51.612;7.510;2023-09-19T16:34:56;20.40;1.00
1592;DHT22;789;51.612;7.510;2023-09-19T16:37:24;20.40;1.00
1592;DHT22;789;51.612;7.510;2023-09-19T16:39:51;20.30;1.00
1592;DHT22;789;51.612;7.510;2023-09-19T16:42:18;20.30;1.00
1592;DHT22;789;51.612;7.510;2023-09-19T16:44:44;20.30;1.00
1592;DHT22;789;51.612;7.510;2023-09-19T16:47:11;20.40;1.00
1592;DHT22;789;51.612;7.510;2023-09-19T16:49:38;20.30;1.00
1592;DHT22;789;51.612;7.510;2023-09-19T16:52:05;20.40;1.00
1592;DHT22;789;51.612;7.510;2023-09-19T16:54:33;20.40;1.00
1592;DHT22;789;51.612;7.510;2023-09-19T16:57:00;20.40;1.00
1592;DHT22;789;51.612;7.510;2023-09-19T16:59:28;20.30;1.00
1592;DHT22;789;51.612;7.510;2023-09-19T17:01:55;20.30;1.00
1592;DHT22;789;51.612;7.510;2023-09-19T17:04:24;20.30;1.00
1592;DHT22;789;51.612;7.510;2023-09-19T17:06:52;20.30;1.00
1592;DHT22;789;51.612;7.510;2023-09-19T17:09:19;20.30;1.00
1592;DHT22;789;51.612;7.510;2023-09-19T17:11:47;20.20;1.00
1592;DHT22;789;51.612;7.510;2023-09-19T17:14:15;20.20;1.00